KFHR/FHR METAR and TAF weather

Enter ICAO airport designator
Station Type Date Time Source
KFHR METAR 2020/10/20 17:02 UTC NOAA

KFHR 201702Z AUTO 11003KT 10SM FEW002 SCT008 BKN011 10/09 A3022 RMK AO2 T01000094 TSNO


Station Type Date Time Source
KFHR Decoded METAR 2020/10/20 17:02 UTC NOAA

FRIDAY HARBOR AIRPORT, WA, United States (KFHR) 48-31N 123-02W 32M
Oct 20, 2020 - 01:02 PM EDT / 2020.10.20 1702 UTC
Wind: from the ESE (110 degrees) at 3 MPH (3 KT):0
Visibility: 10 mile(s):0
Sky conditions: mostly cloudy
Temperature: 50.0 F (10.0 C)
Dew Point: 48.9 F (9.4 C)
Relative Humidity: 96%
Pressure (altimeter): 30.22 in. Hg (1023 hPa)
ob: KFHR 201702Z AUTO 11003KT 10SM FEW002 SCT008 BKN011 10/09 A3022 RMK AO2 T01000094 TSNO
cycle: 17

Station Type Date Time Source
KFHR TAF UTC NOAA

Error!

Example: see airport list